createdAt,value
2022-11-15T00:01:26.513Z,8.370056
2022-11-15T00:04:51.785Z,8.339844
2022-11-15T00:08:17.161Z,8.359985
2022-11-15T00:11:42.321Z,8.370056
2022-11-15T00:15:07.563Z,8.410339
2022-11-15T00:18:32.814Z,8.440552
2022-11-15T00:21:58.079Z,8.430481
2022-11-15T00:25:23.321Z,8.430481
2022-11-15T00:28:48.653Z,8.440552
2022-11-15T00:32:13.869Z,8.410339
2022-11-15T00:35:39.123Z,8.440552
2022-11-15T00:39:04.366Z,8.480835
2022-11-15T00:42:29.629Z,8.470764
2022-11-15T00:45:54.944Z,8.450623
2022-11-15T00:49:20.157Z,8.440552
2022-11-15T00:52:45.419Z,8.470764
2022-11-15T00:56:10.656Z,8.440552
2022-11-15T00:59:35.929Z,8.470764
2022-11-15T01:03:01.222Z,8.521118
2022-11-15T01:06:26.427Z,8.611755
2022-11-15T01:09:51.704Z,8.702393
2022-11-15T01:13:16.980Z,8.772888
2022-11-15T01:16:42.197Z,8.712463
2022-11-15T01:20:07.468Z,8.742676
2022-11-15T01:23:32.850Z,8.732605
2022-11-15T01:26:57.959Z,8.762817
2022-11-15T01:30:23.185Z,8.742676
2022-11-15T01:33:48.430Z,8.712463
2022-11-15T01:37:13.726Z,8.732605
2022-11-15T01:40:38.951Z,8.742676
2022-11-15T01:44:04.229Z,8.742676
2022-11-15T01:47:29.473Z,8.762817
2022-11-15T01:50:54.711Z,8.742676
2022-11-15T01:54:19.998Z,8.742676
2022-11-15T01:57:45.243Z,8.803101
2022-11-15T02:01:10.506Z,8.813171
2022-11-15T02:04:35.720Z,8.813171
2022-11-15T02:08:01.000Z,8.79303
2022-11-15T02:11:26.266Z,8.772888
2022-11-15T02:14:51.471Z,8.803101
2022-11-15T02:18:16.723Z,8.772888
2022-11-15T02:21:41.984Z,8.79303
2022-11-15T02:25:07.256Z,8.762817
2022-11-15T02:28:32.550Z,8.702393
2022-11-15T02:31:57.829Z,8.712463
2022-11-15T02:35:23.045Z,8.732605
2022-11-15T02:38:48.301Z,8.732605
2022-11-15T02:42:13.552Z,8.712463
2022-11-15T02:45:38.839Z,8.682251
2022-11-15T02:49:04.069Z,8.621826
2022-11-15T02:52:29.325Z,8.500977
2022-11-15T02:55:54.590Z,8.400269
2022-11-15T02:59:19.838Z,8.299561
2022-11-15T03:02:45.149Z,8.229065
2022-11-15T03:06:10.396Z,8.118286
2022-11-15T03:09:35.649Z,7.947083
2022-11-15T03:13:00.904Z,7.826233
2022-11-15T03:16:26.140Z,7.816162
2022-11-15T03:19:51.420Z,7.735596
2022-11-15T03:23:16.624Z,7.685242
2022-11-15T03:26:41.875Z,7.584534
2022-11-15T03:30:07.109Z,7.503967
2022-11-15T03:33:32.741Z,7.493896
2022-11-15T03:36:57.678Z,7.423401
2022-11-15T03:40:22.876Z,7.342834
2022-11-15T03:43:48.144Z,7.342834
2022-11-15T03:47:13.421Z,7.352905
2022-11-15T03:50:38.691Z,7.302551
2022-11-15T03:54:04.013Z,7.201843
2022-11-15T03:57:29.207Z,7.171631
2022-11-15T04:00:54.485Z,7.201843
2022-11-15T04:04:19.696Z,7.272339
2022-11-15T04:07:44.934Z,7.312622
2022-11-15T04:11:10.215Z,7.342834
2022-11-15T04:14:35.462Z,7.312622
2022-11-15T04:18:00.697Z,7.28241
2022-11-15T04:21:25.965Z,7.28241
2022-11-15T04:24:51.218Z,7.272339
2022-11-15T04:28:16.491Z,7.322693
2022-11-15T04:31:41.711Z,7.453613
2022-11-15T04:35:06.962Z,7.584534
2022-11-15T04:38:32.190Z,7.78595
2022-11-15T04:41:57.427Z,7.896729
2022-11-15T04:45:22.689Z,7.967224
2022-11-15T04:48:47.936Z,8.017578
2022-11-15T04:52:13.581Z,8.03772
2022-11-15T04:55:38.839Z,7.947083
2022-11-15T04:59:04.213Z,7.826233
2022-11-15T05:02:29.516Z,7.604675
2022-11-15T05:05:54.919Z,7.463684
2022-11-15T05:09:20.330Z,7.28241
2022-11-15T05:12:45.643Z,7.151489
2022-11-15T05:16:10.906Z,7.070923
2022-11-15T05:19:36.190Z,7.070923
2022-11-15T05:23:01.403Z,7.070923
2022-11-15T05:26:26.682Z,7.131348
2022-11-15T05:29:51.938Z,7.171631
2022-11-15T05:33:17.221Z,7.28241
2022-11-15T05:36:42.486Z,7.312622
2022-11-15T05:40:07.685Z,7.342834
2022-11-15T05:43:33.159Z,7.393188
2022-11-15T05:46:58.238Z,7.483826
2022-11-15T05:50:23.504Z,7.574463
2022-11-15T05:53:48.778Z,7.614746
2022-11-15T05:57:14.041Z,7.6651
2022-11-15T06:00:39.310Z,7.705383
2022-11-15T06:04:04.548Z,7.78595
2022-11-15T06:07:29.815Z,7.856445
2022-11-15T06:10:55.091Z,7.967224
2022-11-15T06:14:20.342Z,7.967224
2022-11-15T06:17:45.581Z,8.007507
2022-11-15T06:21:10.807Z,8.03772
2022-11-15T06:24:36.042Z,8.078003
2022-11-15T06:28:01.309Z,8.098145
2022-11-15T06:31:26.568Z,8.067932
2022-11-15T06:34:51.812Z,8.148499
2022-11-15T06:38:17.056Z,8.098145
2022-11-15T06:41:42.365Z,8.098145
2022-11-15T06:45:09.906Z,8.098145
2022-11-15T06:48:35.829Z,8.148499
2022-11-15T06:52:02.390Z,8.218994
2022-11-15T06:55:30.286Z,8.279419
2022-11-15T06:58:59.051Z,8.380127
2022-11-15T07:02:25.855Z,8.521118
2022-11-15T07:05:54.242Z,8.561401
2022-11-15T07:09:19.983Z,8.652039
2022-11-15T07:12:45.244Z,8.732605
2022-11-15T07:16:10.470Z,8.803101
2022-11-15T07:19:35.754Z,8.803101
2022-11-15T07:23:00.992Z,8.893738
2022-11-15T07:26:26.241Z,8.944092
2022-11-15T07:29:51.543Z,8.994446
2022-11-15T07:33:16.780Z,9.054871
2022-11-15T07:36:42.075Z,9.125366
2022-11-15T07:40:07.293Z,9.135437
2022-11-15T07:43:32.931Z,9.205933
2022-11-15T07:46:57.877Z,9.276428
2022-11-15T07:50:23.149Z,9.326782
2022-11-15T07:53:48.430Z,9.42749
2022-11-15T07:57:13.680Z,9.477844
2022-11-15T08:00:38.939Z,9.538269
2022-11-15T08:04:04.209Z,9.608765
2022-11-15T08:07:29.521Z,9.689331
2022-11-15T08:10:54.765Z,9.749756
2022-11-15T08:14:19.964Z,9.810181
2022-11-15T08:17:45.204Z,9.93103
2022-11-15T08:21:15.571Z,10.021667
2022-11-15T08:24:36.380Z,10.122375
2022-11-15T08:28:03.024Z,10.172729
2022-11-15T08:31:28.256Z,10.223083
2022-11-15T08:34:53.511Z,10.323792
2022-11-15T08:38:18.808Z,10.343933
2022-11-15T08:41:44.035Z,10.364075
2022-11-15T08:45:09.298Z,10.4245
2022-11-15T08:48:34.758Z,10.515137
2022-11-15T08:51:59.825Z,10.525208
2022-11-15T08:55:25.215Z,10.55542
2022-11-15T08:58:50.332Z,10.625916
2022-11-15T09:02:15.696Z,10.706482
2022-11-15T09:05:40.916Z,10.776978
2022-11-15T09:09:06.203Z,10.817261
2022-11-15T09:12:31.458Z,10.877686
2022-11-15T09:15:56.708Z,10.917969
2022-11-15T09:19:22.013Z,11.018677
2022-11-15T09:22:47.232Z,11.069031
2022-11-15T09:26:12.495Z,11.18988
2022-11-15T09:29:37.819Z,11.320801
2022-11-15T09:33:03.054Z,11.461792
2022-11-15T09:36:28.332Z,11.552429
2022-11-15T09:39:53.561Z,11.622925
2022-11-15T09:43:18.812Z,11.733704
2022-11-15T09:46:44.096Z,11.763916
2022-11-15T09:50:09.364Z,11.854553
2022-11-15T09:54:01.377Z,11.904907
2022-11-15T09:56:59.864Z,11.955261
2022-11-15T10:03:50.406Z,12.035828
2022-11-15T10:07:15.770Z,12.096252
2022-11-15T10:10:40.932Z,12.116394
2022-11-15T10:14:06.160Z,12.18689
2022-11-15T10:17:31.443Z,12.227173
2022-11-15T10:20:56.672Z,12.307739
2022-11-15T10:24:21.935Z,12.31781
2022-11-15T10:27:47.210Z,12.348022
2022-11-15T10:31:14.445Z,12.44873
2022-11-15T10:34:37.788Z,12.529297
2022-11-15T10:38:03.028Z,12.599792
2022-11-15T10:41:28.327Z,12.710571
2022-11-15T10:44:53.581Z,12.82135
2022-11-15T10:48:18.797Z,12.932129
2022-11-15T10:51:44.046Z,12.972412
2022-11-15T10:55:09.272Z,13.002625
2022-11-15T10:58:34.859Z,12.962341
2022-11-15T11:01:59.781Z,12.922058
2022-11-15T11:05:24.998Z,12.962341
2022-11-15T11:08:50.281Z,13.012695
2022-11-15T11:12:15.514Z,13.042908
2022-11-15T11:15:40.771Z,13.032837
2022-11-15T11:19:06.050Z,12.962341
2022-11-15T11:22:31.317Z,13.002625
2022-11-15T11:25:56.563Z,12.962341
2022-11-15T11:29:21.805Z,13.032837
2022-11-15T11:32:49.304Z,13.032837
2022-11-15T11:36:12.380Z,13.032837
2022-11-15T11:39:37.603Z,13.032837
2022-11-15T11:43:02.845Z,13.07312
2022-11-15T11:46:28.103Z,13.113403
2022-11-15T11:49:53.350Z,13.19397
2022-11-15T11:53:18.631Z,13.254395
2022-11-15T11:56:43.873Z,13.294678
2022-11-15T12:00:09.132Z,13.334961
2022-11-15T12:03:34.389Z,13.385315
2022-11-15T12:06:59.696Z,13.455811
2022-11-15T12:10:24.933Z,13.486023
2022-11-15T12:13:50.182Z,13.516235
2022-11-15T12:17:15.447Z,13.516235
2022-11-15T12:20:40.701Z,13.536377
2022-11-15T12:24:05.957Z,13.506165
2022-11-15T12:27:31.256Z,13.506165
2022-11-15T12:30:56.533Z,13.536377
2022-11-15T12:34:21.806Z,13.536377
2022-11-15T12:37:47.087Z,13.566589
2022-11-15T12:41:12.386Z,13.566589
2022-11-15T12:44:37.656Z,13.536377
2022-11-15T12:48:02.911Z,13.546448
2022-11-15T12:51:28.190Z,13.536377
2022-11-15T12:54:53.512Z,13.546448
2022-11-15T12:58:18.777Z,13.516235
2022-11-15T13:01:44.280Z,13.506165
2022-11-15T13:05:09.441Z,13.506165
2022-11-15T13:08:34.707Z,13.486023
2022-11-15T13:12:00.000Z,13.506165
2022-11-15T13:15:25.293Z,13.506165
2022-11-15T13:18:50.555Z,13.455811
2022-11-15T13:22:15.815Z,13.304749
2022-11-15T13:25:41.159Z,13.224182
2022-11-15T13:29:06.396Z,13.083191
2022-11-15T13:32:31.664Z,12.972412
2022-11-15T13:35:56.917Z,12.831421
2022-11-15T13:39:22.146Z,12.750854
2022-11-15T13:42:47.384Z,12.710571
2022-11-15T13:46:12.601Z,12.670288
2022-11-15T13:49:37.844Z,12.539368
2022-11-15T13:53:03.122Z,12.458801
2022-11-15T13:56:28.336Z,12.348022
2022-11-15T13:59:53.593Z,12.337952
2022-11-15T14:03:18.839Z,12.267456
2022-11-15T14:06:44.082Z,12.19696
2022-11-15T14:10:09.340Z,12.166748
2022-11-15T14:13:34.546Z,12.126465
2022-11-15T14:16:59.785Z,12.126465
2022-11-15T14:20:25.011Z,12.116394
2022-11-15T14:23:50.278Z,12.086182
2022-11-15T14:27:15.504Z,12.035828
2022-11-15T15:05:32.372Z,11.673279
2022-11-15T15:08:57.642Z,11.471863
2022-11-15T15:12:22.919Z,11.391296
2022-11-15T15:15:48.178Z,11.250305
2022-11-15T15:19:13.466Z,11.038818
2022-11-15T15:22:38.783Z,10.887756
2022-11-15T15:26:04.020Z,10.696411
2022-11-15T15:29:29.329Z,10.656128
2022-11-15T15:32:54.610Z,10.635986
2022-11-15T15:36:19.894Z,10.635986
2022-11-15T15:39:45.195Z,10.605774
2022-11-15T15:43:10.506Z,10.625916
2022-11-15T15:46:35.755Z,10.625916
2022-11-15T15:50:01.101Z,10.656128
2022-11-15T15:53:26.325Z,10.666199
2022-11-15T15:56:55.996Z,10.605774
2022-11-15T16:00:16.892Z,10.545349
2022-11-15T16:03:42.178Z,10.454712
2022-11-15T16:07:07.509Z,10.343933
2022-11-15T16:10:32.765Z,10.364075
2022-11-15T16:13:58.072Z,10.384216
2022-11-15T16:17:23.325Z,10.343933
2022-11-15T16:20:48.651Z,10.4245
2022-11-15T16:24:13.905Z,10.515137
2022-11-15T16:27:39.178Z,10.595703
2022-11-15T16:31:04.437Z,10.67627
2022-11-15T16:34:31.631Z,10.696411
2022-11-15T16:37:54.927Z,10.67627
2022-11-15T16:41:20.173Z,10.666199
2022-11-15T16:44:45.554Z,10.585632
2022-11-15T16:48:10.828Z,10.505066
2022-11-15T16:51:36.028Z,10.30365
2022-11-15T16:55:01.275Z,10.172729
2022-11-15T16:58:26.514Z,10.092163
2022-11-15T17:01:51.776Z,10.092163
2022-11-15T17:05:20.004Z,10.092163
2022-11-15T17:08:42.276Z,10.011597
2022-11-15T17:12:07.542Z,9.910889
2022-11-15T17:15:32.790Z,9.870605
2022-11-15T17:18:58.037Z,9.890747
2022-11-15T17:22:23.300Z,9.830322
2022-11-15T17:25:48.538Z,9.860535
2022-11-15T17:29:13.789Z,9.971313
2022-11-15T17:32:39.054Z,10.05188
2022-11-15T17:36:04.417Z,10.082092
2022-11-15T17:39:29.784Z,10.112305
2022-11-15T17:42:55.092Z,10.1828
2022-11-15T17:46:20.423Z,10.223083
2022-11-15T17:49:45.738Z,10.253296
2022-11-15T17:53:11.060Z,10.263367
2022-11-15T17:56:36.436Z,10.333862
2022-11-15T18:00:01.735Z,10.333862
2022-11-15T18:03:27.059Z,10.30365
2022-11-15T18:06:52.452Z,10.223083
2022-11-15T18:10:17.742Z,10.142517
2022-11-15T18:13:43.700Z,10.072021
2022-11-15T18:17:08.353Z,10.011597
2022-11-15T18:20:33.913Z,9.961243
2022-11-15T18:23:59.204Z,9.870605
2022-11-15T18:27:24.546Z,9.790039
2022-11-15T18:30:49.994Z,9.779968
2022-11-15T18:34:15.284Z,9.709473
2022-11-15T18:37:40.631Z,9.578552
2022-11-15T18:41:05.942Z,9.508057
2022-11-15T18:44:31.321Z,9.397278
2022-11-15T18:47:56.642Z,9.256287
2022-11-15T18:51:21.944Z,9.095154
2022-11-15T18:54:47.287Z,8.954163
2022-11-15T18:58:12.611Z,8.772888
2022-11-15T19:01:37.981Z,8.732605
2022-11-15T19:05:03.368Z,8.833313
2022-11-15T19:08:31.655Z,8.984375
2022-11-15T19:11:54.025Z,9.135437
2022-11-15T19:15:20.135Z,9.205933
2022-11-15T19:18:45.459Z,9.226074
2022-11-15T19:22:10.832Z,9.236145
2022-11-15T19:25:36.167Z,9.276428
2022-11-15T19:29:01.491Z,9.276428
2022-11-15T19:32:26.777Z,9.306641
2022-11-15T19:35:52.114Z,9.326782
2022-11-15T19:39:17.463Z,9.397278
2022-11-15T19:42:42.754Z,9.397278
2022-11-15T19:46:08.133Z,9.42749
2022-11-15T19:49:33.432Z,9.356995
2022-11-15T19:52:58.730Z,9.256287
2022-11-15T19:56:24.119Z,9.165649
2022-11-15T19:59:49.433Z,9.195862
2022-11-15T20:03:14.718Z,9.226074
2022-11-15T20:06:40.474Z,9.195862
2022-11-15T20:10:05.812Z,9.095154
2022-11-15T20:13:31.196Z,8.984375
2022-11-15T20:16:56.495Z,8.954163
2022-11-15T20:20:21.889Z,8.893738
2022-11-15T20:23:47.257Z,8.893738
2022-11-15T20:27:12.521Z,8.92395
2022-11-15T20:30:37.899Z,8.994446
2022-11-15T20:34:03.175Z,9.014587
2022-11-15T20:37:28.515Z,8.843384
2022-11-15T20:40:58.958Z,8.833313
2022-11-15T20:44:19.136Z,8.954163
2022-11-15T20:47:44.473Z,9.054871
2022-11-15T20:51:09.821Z,9.125366
2022-11-15T20:54:35.972Z,9.125366
2022-11-15T20:58:01.485Z,9.054871
2022-11-15T21:01:26.864Z,9.054871
2022-11-15T21:04:51.983Z,9.075012
2022-11-15T21:08:17.182Z,9.095154
2022-11-15T21:11:42.430Z,9.075012
2022-11-15T21:15:07.653Z,8.994446
2022-11-15T21:18:33.270Z,8.984375
2022-11-15T21:21:58.170Z,8.954163
2022-11-15T21:25:23.367Z,8.873596
2022-11-15T21:28:48.607Z,8.913879
2022-11-15T21:32:13.850Z,8.954163
2022-11-15T21:35:39.080Z,9.014587
2022-11-15T21:39:04.373Z,8.994446
2022-11-15T21:42:29.574Z,9.014587
2022-11-15T21:45:54.822Z,8.913879
2022-11-15T21:49:20.042Z,8.79303
2022-11-15T21:52:45.296Z,8.762817
2022-11-15T21:56:10.547Z,8.702393
2022-11-15T21:59:35.757Z,8.79303
2022-11-15T22:03:01.001Z,8.863525
2022-11-15T22:06:26.232Z,8.863525
2022-11-15T22:09:51.483Z,8.732605
2022-11-15T22:13:16.775Z,8.662109
2022-11-15T22:16:41.991Z,8.591614
2022-11-15T22:20:23.011Z,8.581543
2022-11-15T22:23:32.454Z,8.531189
2022-11-15T22:26:57.713Z,8.480835
2022-11-15T22:30:22.937Z,8.480835
2022-11-15T22:33:48.157Z,8.470764
2022-11-15T22:37:20.190Z,8.500977
2022-11-15T22:40:38.637Z,8.500977
2022-11-15T22:44:03.863Z,8.470764
2022-11-15T22:47:29.131Z,8.470764
2022-11-15T22:50:54.321Z,8.480835
2022-11-15T22:54:19.538Z,8.470764
2022-11-15T22:57:44.764Z,8.410339
2022-11-15T23:01:09.988Z,8.329773
2022-11-15T23:04:35.243Z,8.259277
2022-11-15T23:08:00.467Z,8.118286
2022-11-15T23:11:25.727Z,8.047791
2022-11-15T23:14:50.948Z,8.148499
2022-11-15T23:18:16.190Z,8.259277
2022-11-15T23:21:41.441Z,8.188782
2022-11-15T23:25:06.652Z,8.229065
2022-11-15T23:28:32.140Z,8.28949
2022-11-15T23:32:01.856Z,8.249207
2022-11-15T23:35:22.326Z,8.198853
2022-11-15T23:38:47.616Z,8.229065
2022-11-15T23:42:12.849Z,8.259277
2022-11-15T23:45:38.067Z,8.118286
2022-11-15T23:49:03.305Z,8.007507
2022-11-15T23:52:28.538Z,7.967224
2022-11-15T23:55:53.794Z,7.846375
2022-11-15T23:59:19.003Z,7.705383
